createdAt,value
2017-05-19T00:01:20.371Z,108.00
2017-05-19T00:03:49.615Z,87.93
2017-05-19T00:06:17.899Z,100.10
2017-05-19T00:08:46.264Z,85.00
2017-05-19T00:11:14.580Z,71.10
2017-05-19T00:13:43.716Z,84.02
2017-05-19T00:16:13.168Z,69.35
2017-05-19T00:18:41.451Z,71.07
2017-05-19T00:21:09.727Z,59.93
2017-05-19T00:23:38.100Z,62.68
2017-05-19T00:26:06.387Z,60.48
2017-05-19T00:28:34.762Z,51.52
2017-05-19T00:31:03.345Z,61.98
2017-05-19T00:33:31.636Z,58.28
2017-05-19T00:35:59.916Z,61.28
2017-05-19T00:38:28.311Z,62.95
2017-05-19T00:40:57.375Z,43.45
2017-05-19T00:43:25.753Z,49.37
2017-05-19T00:45:54.132Z,52.77
2017-05-19T00:48:22.514Z,56.43
2017-05-19T00:50:50.799Z,56.73
2017-05-19T00:53:19.124Z,60.15
2017-05-19T00:55:47.404Z,69.27
2017-05-19T00:58:15.720Z,60.48
2017-05-19T01:00:44.253Z,65.07
2017-05-19T01:03:13.276Z,54.50
2017-05-19T01:05:41.571Z,53.02
2017-05-19T01:08:10.359Z,43.85
2017-05-19T01:10:38.643Z,44.22
2017-05-19T01:13:06.924Z,37.43
2017-05-19T01:15:35.296Z,33.02
2017-05-19T01:18:03.576Z,26.73
2017-05-19T01:20:31.954Z,28.40
2017-05-19T01:23:00.539Z,27.52
2017-05-19T01:25:28.961Z,27.68
2017-05-19T01:27:57.977Z,22.40
2017-05-19T01:30:26.492Z,21.32
2017-05-19T01:32:54.774Z,18.12
2017-05-19T01:35:23.116Z,18.13
2017-05-19T01:37:51.776Z,18.90
2017-05-19T01:40:20.828Z,17.07
2017-05-19T01:42:49.212Z,17.20
2017-05-19T01:45:17.540Z,21.77
2017-05-19T01:47:45.865Z,19.50
2017-05-19T01:50:14.252Z,18.03
2017-05-19T01:52:42.624Z,17.02
2017-05-19T01:55:11.001Z,12.93
2017-05-19T01:57:39.312Z,12.85
2017-05-19T02:00:08.580Z,13.20
2017-05-19T02:02:36.957Z,11.15
2017-05-19T02:05:05.336Z,12.20
2017-05-19T02:07:33.647Z,12.40
2017-05-19T02:10:02.051Z,11.73
2017-05-19T02:12:31.083Z,11.63
2017-05-19T02:14:59.604Z,10.70
2017-05-19T02:17:27.889Z,11.82
2017-05-19T02:19:56.937Z,10.72
2017-05-19T02:22:25.314Z,10.53
2017-05-19T02:24:53.628Z,11.32
2017-05-19T02:27:22.691Z,10.17
2017-05-19T02:29:50.971Z,10.97
2017-05-19T02:32:19.312Z,12.32
2017-05-19T02:34:47.595Z,12.82
2017-05-19T02:37:15.904Z,12.83
2017-05-19T02:39:44.275Z,10.32
2017-05-19T02:42:12.651Z,11.32
2017-05-19T02:44:41.032Z,10.48
2017-05-19T02:47:09.335Z,9.87
2017-05-19T02:49:37.616Z,8.35
2017-05-19T02:52:05.968Z,11.63
2017-05-19T02:54:34.445Z,9.17
2017-05-19T02:57:02.719Z,8.92
2017-05-19T02:59:31.100Z,11.53
2017-05-19T03:01:59.480Z,11.03
2017-05-19T03:04:27.764Z,12.62
2017-05-19T03:06:56.044Z,11.20
2017-05-19T03:09:24.413Z,9.55
2017-05-19T03:11:52.791Z,9.23
2017-05-19T03:14:21.093Z,10.83
2017-05-19T03:16:49.403Z,10.47
2017-05-19T03:19:18.416Z,9.88
2017-05-19T03:21:46.724Z,11.93
2017-05-19T03:24:15.048Z,10.55
2017-05-19T03:26:44.093Z,9.65
2017-05-19T03:29:12.467Z,10.18
2017-05-19T03:31:41.056Z,10.83
2017-05-19T03:34:09.431Z,9.65
2017-05-19T03:36:37.811Z,11.95
2017-05-19T03:39:06.188Z,9.70
2017-05-19T03:41:34.492Z,8.60
2017-05-19T03:44:02.764Z,8.78
2017-05-19T03:46:31.169Z,8.53
2017-05-19T03:48:59.448Z,9.72
2017-05-19T03:51:27.724Z,9.63
2017-05-19T03:53:56.039Z,8.22
2017-05-19T03:56:24.356Z,7.02
2017-05-19T03:58:52.734Z,7.00
2017-05-19T04:01:21.043Z,7.52
2017-05-19T04:03:49.353Z,6.82
2017-05-19T04:06:17.659Z,7.47
2017-05-19T04:08:45.982Z,6.75
2017-05-19T04:11:15.031Z,5.82
2017-05-19T04:13:43.416Z,6.18
2017-05-19T04:16:11.730Z,5.72
2017-05-19T04:18:40.748Z,5.98
2017-05-19T04:21:09.025Z,6.20
2017-05-19T04:23:38.265Z,5.62
2017-05-19T04:26:06.551Z,5.50
2017-05-19T04:28:34.929Z,5.28
2017-05-19T04:31:03.243Z,4.47
2017-05-19T04:33:31.587Z,4.42
2017-05-19T04:35:59.964Z,5.12
2017-05-19T04:38:28.292Z,4.75
2017-05-19T04:40:57.308Z,4.17
2017-05-19T04:43:25.579Z,4.05
2017-05-19T04:45:53.907Z,4.55
2017-05-19T04:48:22.272Z,4.32
2017-05-19T04:50:50.648Z,3.92
2017-05-19T04:53:18.967Z,4.25
2017-05-19T04:55:47.979Z,4.77
2017-05-19T04:58:16.305Z,4.08
2017-05-19T05:00:44.988Z,4.22
2017-05-19T05:03:13.369Z,4.52
2017-05-19T05:05:41.650Z,4.62
2017-05-19T05:08:09.971Z,4.38
2017-05-19T05:10:38.994Z,4.40
2017-05-19T05:13:07.272Z,4.32
2017-05-19T05:15:35.885Z,5.58
2017-05-19T05:18:04.158Z,5.05
2017-05-19T05:20:32.536Z,4.68
2017-05-19T05:23:00.924Z,5.52
2017-05-19T05:25:29.296Z,8.55
2017-05-19T05:27:57.675Z,4.70
2017-05-19T05:30:25.983Z,3.95
2017-05-19T05:32:55.044Z,4.77
2017-05-19T05:35:23.431Z,4.60
2017-05-19T05:37:51.767Z,4.20
2017-05-19T05:40:20.056Z,4.63
2017-05-19T05:42:48.348Z,4.37
2017-05-19T05:45:16.876Z,4.80
2017-05-19T05:47:45.898Z,4.83
2017-05-19T05:50:51.816Z,5.04
2017-05-19T05:53:20.175Z,4.73
2017-05-19T05:55:48.552Z,4.60
2017-05-19T05:58:16.924Z,5.52
2017-05-19T06:00:45.209Z,5.87
2017-05-19T06:03:13.690Z,6.00
2017-05-19T06:05:42.011Z,6.27
2017-05-19T06:08:10.351Z,6.00
2017-05-19T06:10:38.720Z,6.52
2017-05-19T06:13:07.109Z,5.45
2017-05-19T06:15:35.480Z,5.43
2017-05-19T06:18:03.764Z,4.72
2017-05-19T06:20:32.135Z,4.47
2017-05-19T06:23:00.516Z,3.10
2017-05-19T06:25:28.791Z,3.07
2017-05-19T06:27:57.249Z,3.25
2017-05-19T06:30:25.531Z,3.02
2017-05-19T06:32:53.808Z,3.48
2017-05-19T06:35:22.224Z,3.42
2017-05-19T06:37:50.584Z,3.12
2017-05-19T06:40:18.869Z,3.58
2017-05-19T06:42:47.345Z,4.80
2017-05-19T06:45:15.628Z,3.30
2017-05-19T06:47:44.003Z,4.35
2017-05-19T06:50:12.527Z,3.62
2017-05-19T06:52:40.808Z,3.73
2017-05-19T06:55:09.151Z,4.43
2017-05-19T06:57:37.467Z,4.73
2017-05-19T07:00:05.743Z,5.28
2017-05-19T07:02:34.020Z,5.83
2017-05-19T07:05:02.348Z,4.88
2017-05-19T07:07:30.779Z,5.03
2017-05-19T07:09:59.061Z,7.48
2017-05-19T07:12:27.540Z,4.73
2017-05-19T07:14:55.923Z,4.97
2017-05-19T07:17:24.291Z,6.05
2017-05-19T07:19:52.598Z,5.80
2017-05-19T07:22:20.881Z,6.32
2017-05-19T07:24:49.440Z,5.88
2017-05-19T07:27:17.825Z,6.25
2017-05-19T07:29:46.202Z,5.62
2017-05-19T07:32:14.516Z,6.35
2017-05-19T07:34:42.800Z,5.18
2017-05-19T07:37:11.080Z,5.78
2017-05-19T07:39:39.513Z,5.95
2017-05-19T07:42:07.798Z,5.80
2017-05-19T07:44:36.080Z,6.38
2017-05-19T07:47:04.440Z,6.80
2017-05-19T07:49:32.832Z,6.23
2017-05-19T07:52:01.112Z,6.20
2017-05-19T07:54:29.426Z,7.50
2017-05-19T07:56:57.704Z,6.62
2017-05-19T07:59:26.436Z,6.37
2017-05-19T08:01:54.716Z,6.62
2017-05-19T08:04:22.997Z,6.43
2017-05-19T08:06:51.399Z,6.78
2017-05-19T08:09:19.676Z,6.68
2017-05-19T08:11:48.036Z,10.50
2017-05-19T08:14:16.409Z,6.83
2017-05-19T08:16:44.688Z,6.52
2017-05-19T08:19:13.067Z,7.30
2017-05-19T08:21:41.449Z,7.05
2017-05-19T08:24:09.725Z,8.08
2017-05-19T08:26:38.101Z,6.67
2017-05-19T08:29:06.426Z,7.22
2017-05-19T08:31:34.711Z,6.25
2017-05-19T08:34:02.988Z,6.38
2017-05-19T08:36:31.296Z,7.03
2017-05-19T08:38:59.577Z,6.33
2017-05-19T08:41:28.068Z,8.28
2017-05-19T08:43:56.349Z,7.28
2017-05-19T08:46:24.724Z,8.08
2017-05-19T08:48:53.105Z,8.30
2017-05-19T08:51:21.584Z,7.02
2017-05-19T08:53:49.896Z,5.73
2017-05-19T08:56:18.177Z,6.75
2017-05-19T08:58:46.487Z,7.06
2017-05-19T09:01:14.824Z,7.28
2017-05-19T09:03:43.100Z,7.02
2017-05-19T09:06:11.380Z,8.32
2017-05-19T09:08:39.900Z,8.95
2017-05-19T09:11:08.277Z,7.80
2017-05-19T09:13:36.648Z,7.13
2017-05-19T09:16:04.957Z,8.28
2017-05-19T09:18:33.239Z,11.35
2017-05-19T09:21:01.586Z,6.88
2017-05-19T09:23:29.900Z,7.03
2017-05-19T09:25:58.185Z,9.43
2017-05-19T09:28:26.489Z,8.33
2017-05-19T09:30:54.896Z,8.25
2017-05-19T09:33:23.177Z,6.98
2017-05-19T09:35:51.464Z,7.17
2017-05-19T09:38:20.041Z,7.48
2017-05-19T09:40:48.427Z,7.55
2017-05-19T09:43:16.776Z,7.00
2017-05-19T09:45:45.257Z,7.53
2017-05-19T09:48:13.636Z,5.88
2017-05-19T09:50:41.912Z,7.37
2017-05-19T09:53:10.227Z,6.58
2017-05-19T09:55:38.572Z,6.05
2017-05-19T09:58:06.950Z,6.58
2017-05-19T10:00:35.423Z,7.03
2017-05-19T10:03:03.704Z,7.58
2017-05-19T10:05:31.979Z,7.03
2017-05-19T10:08:00.664Z,7.62
2017-05-19T10:10:28.949Z,6.88
2017-05-19T10:12:57.326Z,6.80
2017-05-19T10:15:25.648Z,6.23
2017-05-19T10:17:53.992Z,8.12
2017-05-19T10:20:22.364Z,7.53
2017-05-19T10:22:51.048Z,7.20
2017-05-19T10:25:19.327Z,6.90
2017-05-19T10:27:47.607Z,6.05
2017-05-19T10:30:16.096Z,7.17
2017-05-19T10:32:44.477Z,6.78
2017-05-19T10:35:12.857Z,6.90
2017-05-19T10:37:41.335Z,6.73
2017-05-19T10:40:09.612Z,5.38
2017-05-19T10:42:37.892Z,5.30
2017-05-19T10:45:06.204Z,6.37
2017-05-19T10:47:34.508Z,5.73
2017-05-19T10:50:02.796Z,8.93
2017-05-19T10:52:31.200Z,5.38
2017-05-19T10:54:59.480Z,5.23
2017-05-19T10:57:27.803Z,5.67
2017-05-19T10:59:56.140Z,6.12
2017-05-19T11:02:24.512Z,5.73
2017-05-19T11:04:52.830Z,6.58
2017-05-19T11:07:21.134Z,6.43
2017-05-19T11:09:49.443Z,8.90
2017-05-19T11:12:17.731Z,5.27
2017-05-19T11:14:46.147Z,4.28
2017-05-19T11:17:14.485Z,4.20
2017-05-19T11:19:42.767Z,3.12
2017-05-19T11:22:11.088Z,2.82
2017-05-19T11:24:39.417Z,2.48
2017-05-19T11:27:07.788Z,2.20
2017-05-19T11:29:36.128Z,4.42
2017-05-19T11:32:04.409Z,2.92
2017-05-19T11:34:32.729Z,3.30
2017-05-19T11:37:00.259Z,3.02
2017-05-19T11:39:28.540Z,2.93
2017-05-19T11:41:56.844Z,3.00
2017-05-19T11:44:25.175Z,3.48
2017-05-19T11:46:53.461Z,3.20
2017-05-19T11:49:21.737Z,2.98
2017-05-19T11:51:50.059Z,4.30
2017-05-19T11:54:18.485Z,4.65
2017-05-19T11:56:46.828Z,4.50
2017-05-19T11:59:15.149Z,5.12
2017-05-19T12:01:43.471Z,5.20
2017-05-19T12:04:11.756Z,6.30
2017-05-19T12:06:40.070Z,5.90
2017-05-19T12:09:08.372Z,7.28
2017-05-19T12:11:42.108Z,7.27
2017-05-19T12:14:10.497Z,8.25
2017-05-19T12:16:38.786Z,8.72
2017-05-19T12:19:07.148Z,8.72
2017-05-19T12:21:35.529Z,9.00
2017-05-19T12:24:03.813Z,9.50
2017-05-19T12:26:32.285Z,10.25
2017-05-19T12:29:00.668Z,10.43
2017-05-19T12:31:28.951Z,9.70
2017-05-19T12:33:57.273Z,9.15
2017-05-19T12:36:25.552Z,9.02
2017-05-19T12:38:53.835Z,9.87
2017-05-19T12:41:21.475Z,10.07
2017-05-19T12:43:49.764Z,11.70
2017-05-19T12:46:18.049Z,11.62
2017-05-19T12:48:46.368Z,11.67
2017-05-19T12:51:14.655Z,11.92
2017-05-19T12:53:42.939Z,12.20
2017-05-19T12:56:11.265Z,15.05
2017-05-19T12:58:39.561Z,13.77
2017-05-19T13:01:07.850Z,12.25
2017-05-19T13:03:36.166Z,13.60
2017-05-19T13:06:04.452Z,12.07
2017-05-19T13:08:32.760Z,13.22
2017-05-19T13:11:01.047Z,13.70
2017-05-19T13:13:29.356Z,16.47
2017-05-19T13:15:57.636Z,14.72
2017-05-19T13:18:25.948Z,15.13
2017-05-19T13:20:54.229Z,14.35
2017-05-19T13:23:21.776Z,17.23
2017-05-19T13:25:50.060Z,15.37
2017-05-19T13:28:18.345Z,16.98
2017-05-19T13:30:46.087Z,16.08
2017-05-19T13:33:14.365Z,14.73
2017-05-19T13:35:42.648Z,14.97
2017-05-19T13:38:11.812Z,14.93
2017-05-19T13:40:40.100Z,16.30
2017-05-19T13:43:08.381Z,15.72
2017-05-19T13:45:36.697Z,15.17
2017-05-19T13:48:05.025Z,16.23
2017-05-19T13:50:33.320Z,13.93
2017-05-19T13:53:01.616Z,16.67
2017-05-19T13:55:29.972Z,15.48
2017-05-19T13:57:58.252Z,15.55
2017-05-19T14:00:26.800Z,14.98
2017-05-19T14:02:55.117Z,15.77
2017-05-19T14:05:23.400Z,14.27
2017-05-19T14:07:51.856Z,15.05
2017-05-19T14:10:20.232Z,13.75
2017-05-19T14:12:48.621Z,13.85
2017-05-19T14:15:18.284Z,15.73
2017-05-19T14:17:46.601Z,13.07
2017-05-19T14:20:14.888Z,14.65
2017-05-19T14:22:43.236Z,13.47
2017-05-19T14:25:11.511Z,12.43
2017-05-19T14:27:39.794Z,13.60
2017-05-19T14:30:08.130Z,15.17
2017-05-19T14:32:36.417Z,14.52
2017-05-19T14:35:04.700Z,14.20
2017-05-19T14:37:33.116Z,16.17
2017-05-19T14:40:01.397Z,14.03
2017-05-19T14:42:29.680Z,14.40
2017-05-19T14:44:57.992Z,13.83
2017-05-19T14:47:26.276Z,13.92
2017-05-19T14:49:54.588Z,15.02
2017-05-19T14:52:22.869Z,16.27
2017-05-19T14:54:51.175Z,17.48
2017-05-19T14:57:19.484Z,16.98
2017-05-19T14:59:47.770Z,16.93
2017-05-19T15:02:16.436Z,17.53
2017-05-19T15:04:44.720Z,18.40
2017-05-19T15:07:13.000Z,17.60
2017-05-19T15:09:41.412Z,16.57
2017-05-19T15:12:09.695Z,17.65
2017-05-19T15:14:37.979Z,16.42
2017-05-19T15:17:06.296Z,17.18
2017-05-19T15:19:34.611Z,17.08
2017-05-19T15:22:02.892Z,17.30
2017-05-19T15:24:31.203Z,20.03
2017-05-19T15:26:59.512Z,17.22
2017-05-19T15:29:27.792Z,19.73
2017-05-19T15:31:56.252Z,22.72
2017-05-19T15:34:24.536Z,17.25
2017-05-19T15:36:52.820Z,19.28
2017-05-19T15:39:21.306Z,18.60
2017-05-19T15:41:49.588Z,19.47
2017-05-19T15:44:17.948Z,20.43
2017-05-19T15:46:46.259Z,19.27
2017-05-19T15:49:14.598Z,22.05
2017-05-19T15:51:42.881Z,18.53
2017-05-19T15:54:11.168Z,18.87
2017-05-19T15:56:39.738Z,18.63
2017-05-19T15:59:08.113Z,17.38
2017-05-19T16:01:36.487Z,19.02
2017-05-19T16:04:04.871Z,21.73
2017-05-19T16:06:33.156Z,15.77
2017-05-19T16:09:01.437Z,15.12
2017-05-19T16:11:29.964Z,16.90
2017-05-19T16:13:58.287Z,20.07
2017-05-19T16:16:26.572Z,18.47
2017-05-19T16:18:55.832Z,20.28
2017-05-19T16:21:24.182Z,19.13
2017-05-19T16:23:52.508Z,20.35
2017-05-19T16:26:20.788Z,18.30
2017-05-19T16:28:49.072Z,18.07
2017-05-19T16:31:17.493Z,19.55
2017-05-19T16:33:45.776Z,19.73
2017-05-19T16:36:14.151Z,18.07
2017-05-19T16:38:42.629Z,17.65
2017-05-19T16:41:10.912Z,17.93
2017-05-19T16:43:39.194Z,19.98
2017-05-19T16:46:08.147Z,15.45
2017-05-19T16:48:36.532Z,17.77
2017-05-19T16:51:04.909Z,19.92
2017-05-19T16:53:33.215Z,15.77
2017-05-19T16:56:01.519Z,15.58
2017-05-19T16:58:29.803Z,16.48
2017-05-19T17:00:58.525Z,14.52
2017-05-19T17:03:26.809Z,16.32
2017-05-19T17:05:55.092Z,15.80
2017-05-19T17:08:23.411Z,16.05
2017-05-19T17:10:51.725Z,17.78
2017-05-19T17:13:20.008Z,17.75
2017-05-19T17:15:48.416Z,17.57
2017-05-19T17:18:16.752Z,16.93
2017-05-19T17:20:45.031Z,15.57
2017-05-19T17:23:13.784Z,13.48
2017-05-19T17:25:42.148Z,17.42
2017-05-19T17:28:10.427Z,14.52
2017-05-19T17:30:38.808Z,12.60
2017-05-19T17:33:07.188Z,17.63
2017-05-19T17:35:35.553Z,16.12
2017-05-19T17:38:04.136Z,12.07
2017-05-19T17:40:32.419Z,14.05
2017-05-19T17:43:00.888Z,14.03
2017-05-19T17:45:29.199Z,16.08
2017-05-19T17:47:57.520Z,13.80
2017-05-19T17:50:27.872Z,13.30
2017-05-19T17:52:56.452Z,15.60
2017-05-19T17:55:24.836Z,11.67
2017-05-19T17:57:53.122Z,16.23
2017-05-19T18:00:21.739Z,14.98
2017-05-19T18:02:50.083Z,12.75
2017-05-19T18:05:18.363Z,11.37
2017-05-19T18:07:47.044Z,12.77
2017-05-19T18:10:15.324Z,18.80
2017-05-19T18:12:43.792Z,14.85
2017-05-19T18:15:12.128Z,17.23
2017-05-19T18:17:40.411Z,15.65
2017-05-19T18:20:08.827Z,15.32
2017-05-19T18:22:37.420Z,12.32
2017-05-19T18:25:05.705Z,13.97
2017-05-19T18:27:33.989Z,18.27
2017-05-19T18:30:02.312Z,17.98
2017-05-19T18:32:30.629Z,17.03
2017-05-19T18:34:58.913Z,15.53
2017-05-19T18:37:27.380Z,16.33
2017-05-19T18:39:55.660Z,17.00
2017-05-19T18:42:24.120Z,15.28
2017-05-19T18:44:52.404Z,14.48
2017-05-19T18:47:20.768Z,15.60
2017-05-19T18:49:49.240Z,14.73
2017-05-19T18:52:17.774Z,15.05
2017-05-19T18:54:47.273Z,16.23
2017-05-19T18:57:16.281Z,16.55
2017-05-19T18:59:44.872Z,16.55
2017-05-19T19:02:13.455Z,19.42
2017-05-19T19:04:42.447Z,16.65
2017-05-19T19:07:11.134Z,16.82
2017-05-19T19:09:39.738Z,18.65
2017-05-19T19:12:08.425Z,14.97
2017-05-19T19:14:37.008Z,16.05
2017-05-19T19:17:05.840Z,16.75
2017-05-19T19:19:34.252Z,19.30
2017-05-19T19:22:02.631Z,19.67
2017-05-19T19:24:31.024Z,18.95
2017-05-19T19:26:59.321Z,19.48
2017-05-19T19:29:27.612Z,19.10
2017-05-19T19:31:56.383Z,19.25
2017-05-19T19:34:24.792Z,20.62
2017-05-19T19:36:53.272Z,19.03
2017-05-19T19:39:22.435Z,20.28
2017-05-19T19:41:50.745Z,20.98
2017-05-19T19:44:19.029Z,19.72
2017-05-19T19:46:47.369Z,20.78
2017-05-19T19:49:15.676Z,17.28
2017-05-19T19:51:44.048Z,18.25
2017-05-19T19:54:12.369Z,22.08
2017-05-19T19:56:40.709Z,20.38
2017-05-19T19:59:09.052Z,20.58
2017-05-19T20:01:37.399Z,20.13
2017-05-19T20:04:05.696Z,21.63
2017-05-19T20:06:34.040Z,22.52
2017-05-19T20:09:02.421Z,22.40
2017-05-19T20:11:30.795Z,22.95
2017-05-19T20:13:59.108Z,24.10
2017-05-19T20:16:27.392Z,21.22
2017-05-19T20:18:55.730Z,24.18
2017-05-19T20:21:24.035Z,23.20
2017-05-19T20:23:52.312Z,22.15
2017-05-19T20:26:20.626Z,22.35
2017-05-19T20:28:49.315Z,21.70
2017-05-19T20:31:17.693Z,20.25
2017-05-19T20:33:46.003Z,22.33
2017-05-19T20:36:14.345Z,20.22
2017-05-19T20:38:42.935Z,23.43
2017-05-19T20:41:11.309Z,21.20
2017-05-19T20:43:39.593Z,22.83
2017-05-19T20:46:07.975Z,20.77
2017-05-19T20:48:36.305Z,22.57
2017-05-19T20:51:04.629Z,21.93
2017-05-19T20:53:33.008Z,20.45
2017-05-19T20:56:01.323Z,23.35
2017-05-19T20:58:29.644Z,20.28
2017-05-19T21:00:57.924Z,22.72
2017-05-19T21:03:26.289Z,20.55
2017-05-19T21:05:54.601Z,20.90
2017-05-19T21:08:22.908Z,20.68
2017-05-19T21:10:51.457Z,20.22
2017-05-19T21:13:19.745Z,21.13
2017-05-19T21:15:48.112Z,19.73
2017-05-19T21:18:16.905Z,20.93
2017-05-19T21:20:45.187Z,20.37
2017-05-19T21:23:13.464Z,21.68
2017-05-19T21:25:42.137Z,20.33
2017-05-19T21:28:10.516Z,23.35
2017-05-19T21:30:38.896Z,21.18
2017-05-19T21:33:07.280Z,21.90
2017-05-19T21:35:35.652Z,21.53
2017-05-19T21:38:04.039Z,21.30
2017-05-19T21:40:32.412Z,20.72
2017-05-19T21:43:00.692Z,18.85
2017-05-19T21:45:29.076Z,19.80
2017-05-19T21:47:57.388Z,16.85
2017-05-19T21:50:25.729Z,17.28
2017-05-19T21:52:54.039Z,16.38
2017-05-19T21:55:22.353Z,16.95
2017-05-19T21:57:50.657Z,16.88
2017-05-19T22:00:19.344Z,16.83
2017-05-19T22:02:47.624Z,15.90
2017-05-19T22:05:16.000Z,12.75
2017-05-19T22:07:44.308Z,17.57
2017-05-19T22:10:12.618Z,15.53
2017-05-19T22:12:40.901Z,15.30
2017-05-19T22:15:09.309Z,15.70
2017-05-19T22:17:38.112Z,15.08
2017-05-19T22:20:06.391Z,15.87
2017-05-19T22:22:34.668Z,14.85
2017-05-19T22:25:02.980Z,15.17
2017-05-19T22:27:31.274Z,15.33
2017-05-19T22:29:59.645Z,12.53
2017-05-19T22:32:28.357Z,13.23
2017-05-19T22:34:56.709Z,13.27
2017-05-19T22:37:24.993Z,15.02
2017-05-19T22:39:53.471Z,20.53
2017-05-19T22:42:21.949Z,14.67
2017-05-19T22:44:50.233Z,17.57
2017-05-19T22:47:18.555Z,16.50
2017-05-19T22:49:46.851Z,17.37
2017-05-19T22:52:15.167Z,17.37
2017-05-19T22:54:43.544Z,16.23
2017-05-19T22:57:11.832Z,15.68
2017-05-19T22:59:40.111Z,17.40
2017-05-19T23:02:09.493Z,17.02
2017-05-19T23:04:37.877Z,19.52
2017-05-19T23:07:06.159Z,17.47
2017-05-19T23:09:34.572Z,18.62
2017-05-19T23:12:02.851Z,18.65
2017-05-19T23:14:31.132Z,15.30
2017-05-19T23:16:59.451Z,16.35
2017-05-19T23:19:27.835Z,15.75
2017-05-19T23:21:56.216Z,17.52
2017-05-19T23:24:24.598Z,16.07
2017-05-19T23:26:52.972Z,16.37
2017-05-19T23:29:21.253Z,22.17
2017-05-19T23:31:49.628Z,16.08
2017-05-19T23:34:18.013Z,16.27
2017-05-19T23:36:46.387Z,15.57
2017-05-19T23:39:14.758Z,17.20
2017-05-19T23:41:43.041Z,14.90
2017-05-19T23:44:11.349Z,14.77
2017-05-19T23:46:39.683Z,15.10
2017-05-19T23:49:07.981Z,15.32
2017-05-19T23:51:36.274Z,13.25
2017-05-19T23:54:04.640Z,14.32
2017-05-19T23:56:33.014Z,15.83
2017-05-19T23:59:01.320Z,15.07
